Time;durP1;ratioP1;P1;durP2;ratioP2;P2;SDS_P1;SDS_P2;PMS_P1;PMS_P2;Temp;Humidity;BMP_temperature;BMP_pressure;BME280_temperature;BME280_humidity;BME280_pressure;Samples;Min_cycle;Max_cycle;Signal;HPM_P1;HPM_P2
2023/10/11 00:01:28;;;;;;;4.78;1.25;;;15.50;99.90;;;;;;5034956;28;20048;-72
2023/10/11 00:03:56;;;;;;;3.38;1.63;;;15.50;99.90;;;;;;5037128;28;20378;-72
2023/10/11 00:06:24;;;;;;;2.78;1.55;;;15.40;99.90;;;;;;5029216;28;20127;-72
2023/10/11 00:08:51;;;;;;;3.60;1.05;;;15.40;99.90;;;;;;5027701;28;20094;-72
2023/10/11 00:11:24;;;;;;;4.18;0.98;;;15.40;99.90;;;;;;5033045;28;20071;-72
2023/10/11 00:13:50;;;;;;;4.87;1.87;;;15.40;99.90;;;;;;5028952;28;20116;-72
2023/10/11 00:16:17;;;;;;;3.35;1.10;;;15.40;99.90;;;;;;5025059;28;20497;-72
2023/10/11 00:18:44;;;;;;;3.47;1.70;;;15.40;99.90;;;;;;5023764;28;20046;-72
2023/10/11 00:21:15;;;;;;;3.60;1.20;;;15.30;99.90;;;;;;5028961;28;20393;-72
2023/10/11 00:23:46;;;;;;;4.20;2.00;;;15.30;99.90;;;;;;5030299;28;20041;-72
2023/10/11 00:26:16;;;;;;;2.47;0.90;;;15.30;99.90;;;;;;5024734;28;20120;-72
2023/10/11 00:28:43;;;;;;;2.30;0.98;;;15.30;99.90;;;;;;5010533;28;20072;-72
2023/10/11 00:31:17;;;;;;;2.47;1.17;;;15.30;99.90;;;;;;5043885;28;20049;-72
2023/10/11 00:33:42;;;;;;;4.67;1.00;;;15.30;99.90;;;;;;5019453;28;20037;-72
2023/10/11 00:36:08;;;;;;;2.60;1.17;;;15.20;99.90;;;;;;5011626;28;20044;-72
2023/10/11 00:38:43;;;;;;;3.20;1.73;;;15.20;99.90;;;;;;5010071;28;20091;-72
2023/10/11 00:41:18;;;;;;;2.40;1.05;;;15.20;99.90;;;;;;5026877;28;20036;-72
2023/10/11 00:43:51;;;;;;;4.40;1.67;;;15.20;99.90;;;;;;5023767;28;20045;-71
2023/10/11 00:46:36;;;;;;;3.55;1.60;;;15.20;99.90;;;;;;5033180;28;20041;-71
2023/10/11 00:49:09;;;;;;;2.58;1.48;;;15.20;99.90;;;;;;5028709;28;20037;-71
2023/10/11 00:51:37;;;;;;;4.85;1.88;;;15.20;99.90;;;;;;5023876;28;20128;-71
2023/10/11 00:54:07;;;;;;;7.03;2.10;;;15.20;99.90;;;;;;5027947;28;20043;-71
2023/10/11 00:56:32;;;;;;;5.35;2.25;;;15.30;99.90;;;;;;5007218;28;20474;-71
2023/10/11 00:58:59;;;;;;;5.40;1.67;;;15.20;99.90;;;;;;5028354;28;20041;-71
2023/10/11 01:01:25;;;;;;;2.97;1.38;;;15.30;99.90;;;;;;5026096;28;20055;-71
2023/10/11 01:03:55;;;;;;;4.80;1.52;;;15.30;99.90;;;;;;5023918;28;20042;-71
2023/10/11 01:06:25;;;;;;;5.47;1.70;;;15.30;99.90;;;;;;5027814;28;20040;-71
2023/10/11 01:08:52;;;;;;;2.90;1.35;;;15.30;99.90;;;;;;5030556;28;20044;-70
2023/10/11 01:11:18;;;;;;;4.22;1.95;;;15.30;99.90;;;;;;5026162;28;20045;-70
2023/10/11 01:13:50;;;;;;;2.65;1.20;;;15.30;99.90;;;;;;5025300;28;20037;-70
2023/10/11 01:16:18;;;;;;;7.22;2.22;;;15.30;99.90;;;;;;5027882;28;20047;-71
2023/10/11 01:18:44;;;;;;;6.55;2.28;;;15.30;99.90;;;;;;5044077;28;20444;-70
2023/10/11 01:21:12;;;;;;;10.70;2.80;;;15.40;99.90;;;;;;5042735;28;20091;-71
2023/10/11 01:23:38;;;;;;;4.05;1.65;;;15.30;99.90;;;;;;5025848;28;20055;-71
2023/10/11 01:26:06;;;;;;;5.50;2.00;;;15.30;99.90;;;;;;5029208;28;20049;-71
2023/10/11 01:28:34;;;;;;;3.00;1.55;;;15.40;99.90;;;;;;5028818;28;20033;-71
2023/10/11 01:31:01;;;;;;;8.00;1.90;;;15.40;99.90;;;;;;5028818;28;20033;-71
2023/10/11 01:33:27;;;;;;;4.22;2.38;;;15.40;99.90;;;;;;5034918;28;20462;-71
2023/10/11 01:35:53;;;;;;;3.83;2.38;;;15.40;99.90;;;;;;5027295;28;20049;-71
2023/10/11 01:38:18;;;;;;;7.90;2.85;;;15.40;99.90;;;;;;5021487;28;20049;-71
2023/10/11 01:40:44;;;;;;;7.43;2.72;;;15.40;99.90;;;;;;5015498;28;20120;-71
2023/10/11 01:43:10;;;;;;;5.88;2.42;;;15.40;99.90;;;;;;5020797;28;20118;-71
2023/10/11 01:45:39;;;;;;;6.43;2.58;;;15.40;99.90;;;;;;5024283;28;20036;-71
2023/10/11 01:48:06;;;;;;;8.32;2.60;;;15.40;99.90;;;;;;5038518;28;20041;-71
2023/10/11 01:50:32;;;;;;;7.93;2.70;;;15.40;99.90;;;;;;5022332;28;20053;-70
2023/10/11 01:52:58;;;;;;;5.25;2.15;;;15.40;99.90;;;;;;5025388;28;20591;-70
2023/10/11 01:55:24;;;;;;;6.03;1.90;;;15.40;99.90;;;;;;5023854;28;20120;-71
2023/10/11 01:57:50;;;;;;;4.82;2.33;;;15.30;99.90;;;;;;5030091;28;20048;-71
2023/10/11 02:00:29;;;;;;;7.28;2.47;;;15.40;99.90;;;;;;5015252;28;20049;-71
2023/10/11 02:02:55;;;;;;;7.38;2.28;;;15.40;99.90;;;;;;5024466;28;20062;-71
2023/10/11 02:05:25;;;;;;;7.57;2.47;;;15.40;99.90;;;;;;5023576;28;20048;-71
2023/10/11 02:07:50;;;;;;;14.15;2.60;;;15.30;99.90;;;;;;5024155;28;20045;-71
2023/10/11 02:10:25;;;;;;;3.25;1.60;;;15.30;99.90;;;;;;5027360;28;20041;-71
2023/10/11 02:12:55;;;;;;;8.32;3.05;;;15.30;99.90;;;;;;5025237;28;20038;-71
2023/10/11 02:15:21;;;;;;;5.57;2.22;;;15.30;99.90;;;;;;5025470;28;20038;-71
2023/10/11 02:17:51;;;;;;;7.40;2.88;;;15.30;99.90;;;;;;5012847;28;20052;-71
2023/10/11 02:20:21;;;;;;;6.60;2.35;;;15.30;99.90;;;;;;5024138;28;20499;-71
2023/10/11 02:22:52;;;;;;;4.07;2.38;;;15.30;99.90;;;;;;5019831;28;20110;-71
2023/10/11 02:25:19;;;;;;;3.63;1.95;;;15.30;99.90;;;;;;5008965;28;20053;-71
2023/10/11 02:27:49;;;;;;;12.10;2.72;;;15.30;99.90;;;;;;5042577;28;20095;-71
2023/10/11 02:30:20;;;;;;;3.63;2.60;;;15.20;99.90;;;;;;5038926;28;20037;-69
2023/10/11 02:32:51;;;;;;;7.32;2.55;;;15.20;99.90;;;;;;5028645;28;20056;-70
2023/10/11 02:35:18;;;;;;;5.53;2.75;;;15.20;99.90;;;;;;5011337;28;20432;-70
2023/10/11 02:37:45;;;;;;;3.00;1.95;;;15.20;99.90;;;;;;5040106;28;20138;-70
2023/10/11 02:40:22;;;;;;;6.63;2.75;;;15.10;99.90;;;;;;5021856;28;20044;-71
2023/10/11 02:42:50;;;;;;;4.07;2.50;;;15.10;99.90;;;;;;5027800;28;20076;-71
2023/10/11 02:45:19;;;;;;;7.13;2.17;;;15.20;99.90;;;;;;5022659;28;20386;-71
2023/10/11 02:47:50;;;;;;;8.02;2.42;;;15.10;99.90;;;;;;5022024;28;20037;-71
2023/10/11 02:50:22;;;;;;;8.43;2.85;;;15.10;99.90;;;;;;5003550;28;20037;-71
2023/10/11 02:52:49;;;;;;;4.88;2.55;;;15.10;99.90;;;;;;5030238;28;20328;-71
2023/10/11 02:55:21;;;;;;;4.53;2.33;;;15.10;99.90;;;;;;5028910;28;20068;-71
2023/10/11 02:57:48;;;;;;;6.82;2.90;;;15.10;99.90;;;;;;5012820;28;20052;-71
2023/10/11 03:00:23;;;;;;;11.98;2.47;;;15.10;99.90;;;;;;5023807;28;20049;-70
2023/10/11 03:02:56;;;;;;;6.78;2.88;;;15.10;99.90;;;;;;5011380;28;20437;-71
2023/10/11 03:05:29;;;;;;;5.30;2.33;;;15.10;99.90;;;;;;5026235;28;20401;-71
2023/10/11 03:07:56;;;;;;;6.25;2.40;;;15.10;99.90;;;;;;5017732;28;20045;-71
2023/10/11 03:10:22;;;;;;;7.70;3.25;;;15.00;99.90;;;;;;5015368;28;20126;-71
2023/10/11 03:12:51;;;;;;;4.35;2.20;;;15.00;99.90;;;;;;5022249;28;20047;-70
2023/10/11 03:15:19;;;;;;;9.82;2.55;;;15.00;99.90;;;;;;5027847;28;20552;-71
2023/10/11 03:17:48;;;;;;;8.35;2.10;;;15.00;99.90;;;;;;5026892;28;20069;-70
2023/10/11 03:20:29;;;;;;;8.55;1.80;;;15.00;99.90;;;;;;5022467;28;20057;-70
2023/10/11 03:22:59;;;;;;;4.72;2.22;;;15.00;99.90;;;;;;5023198;28;20048;-70
2023/10/11 03:25:28;;;;;;;4.50;2.08;;;14.90;99.90;;;;;;5022501;28;20037;-71
2023/10/11 03:27:54;;;;;;;4.30;2.17;;;14.90;99.90;;;;;;5013982;28;20080;-70
2023/10/11 03:30:24;;;;;;;6.50;1.80;;;14.90;99.90;;;;;;5026700;28;20657;-70
2023/10/11 03:32:50;;;;;;;7.70;2.28;;;14.90;99.90;;;;;;5040787;28;20038;-70
2023/10/11 03:35:18;;;;;;;10.15;2.58;;;14.90;99.90;;;;;;5011321;28;20046;-71
2023/10/11 03:37:57;;;;;;;4.30;2.88;;;14.80;99.90;;;;;;5024272;28;20055;-71
2023/10/11 03:40:54;;;;;;;6.15;2.38;;;14.80;99.90;;;;;;5024479;28;20037;-71
2023/10/11 03:43:16;;;;;;;5.07;1.90;;;14.80;99.90;;;;;;5018538;28;20081;-71
2023/10/11 03:45:49;;;;;;;4.53;2.35;;;14.80;99.90;;;;;;5028981;28;20128;-72
2023/10/11 03:48:20;;;;;;;5.47;2.10;;;14.90;99.90;;;;;;5022642;28;20073;-71
2023/10/11 03:50:51;;;;;;;7.20;2.75;;;14.80;99.90;;;;;;5026617;28;20049;-71
2023/10/11 03:53:19;;;;;;;6.90;2.17;;;14.90;99.90;;;;;;5039379;28;20575;-71
2023/10/11 03:55:46;;;;;;;9.05;2.17;;;14.90;99.90;;;;;;5019784;28;20041;-71
2023/10/11 04:01:12;;;;;;;;;;;15.00;99.90;;;;;;5028060;28;20048;-71
2023/10/11 04:03:41;;;;;;;9.48;2.58;;;15.10;99.90;;;;;;5022576;28;20018;-70
2023/10/11 04:06:14;;;;;;;8.90;2.80;;;15.10;99.90;;;;;;5025374;28;20508;-71
2023/10/11 04:08:49;;;;;;;6.85;2.00;;;15.10;99.90;;;;;;5021343;28;20045;-70
2023/10/11 04:11:19;;;;;;;4.45;1.95;;;15.20;99.90;;;;;;5023995;28;20034;-71
2023/10/11 04:13:49;;;;;;;6.90;2.15;;;15.20;99.90;;;;;;5023316;28;20041;-71
2023/10/11 04:16:18;;;;;;;4.97;2.72;;;15.20;99.90;;;;;;5023871;28;20353;-70
2023/10/11 04:18:44;;;;;;;2.38;1.50;;;15.20;99.90;;;;;;5023998;28;20073;-70
2023/10/11 04:23:36;;;;;;;3.35;1.75;;;15.20;99.90;;;;;;5024247;28;20053;-71
2023/10/11 04:26:22;;;;;;;7.95;2.97;;;15.30;99.90;;;;;;5020115;28;20520;-71
2023/10/11 04:28:51;;;;;;;3.80;1.60;;;15.30;99.90;;;;;;5022913;28;20045;-71
2023/10/11 04:31:36;;;;;;;4.00;1.90;;;15.30;99.90;;;;;;5026919;28;20037;-71
2023/10/11 04:34:11;;;;;;;5.65;2.60;;;15.30;99.90;;;;;;5021462;28;20049;-70
2023/10/11 04:36:42;;;;;;;4.13;2.47;;;15.30;99.90;;;;;;5024218;28;20040;-71
2023/10/11 04:39:18;;;;;;;6.32;2.08;;;15.30;99.90;;;;;;5029405;28;20046;-70
2023/10/11 04:41:50;;;;;;;7.13;2.20;;;15.20;99.90;;;;;;5027374;28;20041;-70
2023/10/11 04:44:17;;;;;;;4.63;2.13;;;15.20;99.90;;;;;;5024989;28;20099;-71
2023/10/11 04:46:46;;;;;;;9.93;2.67;;;15.20;99.90;;;;;;5026111;28;20110;-70
2023/10/11 04:49:18;;;;;;;5.07;2.63;;;15.10;99.90;;;;;;5017992;28;20124;-70
2023/10/11 04:51:46;;;;;;;6.53;2.25;;;15.20;99.90;;;;;;5023355;28;20130;-70
2023/10/11 04:54:18;;;;;;;5.47;2.15;;;15.10;99.90;;;;;;5024757;28;20045;-70
2023/10/11 04:59:20;;;;;;;7.80;2.53;;;15.20;99.90;;;;;;5028824;28;20125;-70
2023/10/11 05:04:16;;;;;;;8.10;2.28;;;15.20;99.90;;;;;;5024405;28;20041;-70
2023/10/11 05:06:43;;;;;;;5.18;2.78;;;15.20;99.90;;;;;;5030699;28;20148;-70
2023/10/11 05:09:56;;;;;;;4.60;2.58;;;15.20;99.90;;;;;;5028459;28;20092;-70
2023/10/11 05:14:40;;;;;;;6.28;2.00;;;15.20;99.90;;;;;;5027910;28;20168;-71
2023/10/11 05:19:45;;;;;;;6.90;2.88;;;15.20;99.90;;;;;;5028205;28;20385;-70
2023/10/11 05:22:29;;;;;;;7.68;2.60;;;15.20;99.90;;;;;;5014110;28;20378;-70
2023/10/11 05:32:41;;;;;;;6.15;2.75;;;15.20;99.90;;;;;;5023780;28;20124;-71
2023/10/11 05:51:39;;;;;;;5.53;2.67;;;15.00;99.90;;;;;;5037602;28;20160;-72
2023/10/11 05:54:07;;;;;;;11.10;2.55;;;15.00;99.90;;;;;;5022936;28;20124;-72
2023/10/11 05:56:34;;;;;;;11.02;2.80;;;15.00;99.90;;;;;;5023150;28;20037;-72
2023/10/11 05:59:11;;;;;;;5.18;2.97;;;15.00;99.90;;;;;;5024982;28;20076;-70
2023/10/11 06:01:37;;;;;;;3.53;1.90;;;15.00;99.90;;;;;;5014399;28;20449;-71
2023/10/11 06:04:03;;;;;;;5.72;2.67;;;14.90;99.90;;;;;;5025100;28;20115;-72
2023/10/11 06:06:39;;;;;;;5.78;2.47;;;14.90;99.90;;;;;;5022807;28;20397;-71
2023/10/11 06:09:05;;;;;;;9.80;3.17;;;14.90;99.90;;;;;;5022826;28;20095;-71
2023/10/11 06:11:38;;;;;;;9.35;2.45;;;14.90;99.90;;;;;;5016901;28;20051;-71
2023/10/11 06:14:06;;;;;;;5.32;2.90;;;14.90;99.90;;;;;;5038657;28;20209;-71
2023/10/11 06:16:37;;;;;;;7.35;2.08;;;14.90;99.90;;;;;;5026107;28;20400;-72
2023/10/11 06:19:16;;;;;;;7.50;2.72;;;14.90;99.90;;;;;;5022888;28;20033;-71
2023/10/11 06:21:58;;;;;;;12.82;2.67;;;14.90;99.90;;;;;;5025713;28;20091;-71
2023/10/11 06:24:34;;;;;;;11.27;2.90;;;14.90;99.90;;;;;;5007203;28;20402;-71
2023/10/11 06:29:53;;;;;;;5.93;2.90;;;15.00;99.90;;;;;;4996816;28;20454;-71
2023/10/11 06:32:25;;;;;;;6.78;3.03;;;15.00;99.90;;;;;;5007438;28;20041;-71
2023/10/11 06:34:52;;;;;;;8.13;2.45;;;15.00;99.90;;;;;;5021749;28;20041;-71
2023/10/11 06:37:23;;;;;;;6.32;2.47;;;15.00;99.90;;;;;;5022220;28;20045;-71
2023/10/11 06:44:48;;;;;;;6.13;2.95;;;15.20;99.90;;;;;;5022562;28;20139;-71
2023/10/11 06:47:21;;;;;;;12.35;3.50;;;15.20;99.90;;;;;;5017203;28;20042;-71
2023/10/11 06:49:55;;;;;;;7.80;3.05;;;15.30;99.90;;;;;;5024050;28;20060;-72
2023/10/11 06:52:32;;;;;;;10.95;3.47;;;15.30;99.90;;;;;;5023310;28;20049;-72
2023/10/11 06:55:13;;;;;;;6.57;2.63;;;15.40;99.90;;;;;;5024418;28;20262;-71
2023/10/11 06:58:03;;;;;;;9.32;3.35;;;15.50;99.90;;;;;;5023851;28;20115;-72
2023/10/11 07:00:29;;;;;;;6.63;2.88;;;15.50;99.90;;;;;;5021928;28;20334;-72
2023/10/11 07:03:26;;;;;;;5.57;2.65;;;15.50;99.90;;;;;;5022017;28;20073;-72
2023/10/11 07:06:10;;;;;;;8.10;2.88;;;15.60;99.90;;;;;;5024279;28;20108;-71
2023/10/11 07:08:35;;;;;;;9.93;3.17;;;15.60;99.90;;;;;;5021638;28;20040;-71
2023/10/11 07:11:18;;;;;;;6.00;2.75;;;15.70;99.90;;;;;;5020036;28;20033;-71
2023/10/11 07:13:51;;;;;;;7.47;3.30;;;15.70;99.90;;;;;;5009251;28;20049;-71
2023/10/11 07:16:27;;;;;;;7.60;3.25;;;15.80;99.90;;;;;;5029013;28;20129;-71
2023/10/11 07:18:54;;;;;;;6.57;2.65;;;15.80;99.90;;;;;;5012557;28;20052;-71
2023/10/11 07:21:41;;;;;;;8.55;3.33;;;15.80;99.90;;;;;;5021186;28;20187;-71
2023/10/11 07:27:08;;;;;;;9.73;3.35;;;15.80;99.90;;;;;;5022625;28;20079;-72
2023/10/11 07:29:51;;;;;;;6.03;2.72;;;15.90;99.90;;;;;;5020917;28;20029;-71
2023/10/11 07:32:18;;;;;;;10.13;3.67;;;15.80;99.90;;;;;;5025402;28;20107;-71
2023/10/11 07:34:47;;;;;;;11.60;3.42;;;15.90;99.90;;;;;;5009396;28;20033;-70
2023/10/11 07:37:13;;;;;;;8.52;3.53;;;15.90;99.90;;;;;;5019633;28;20521;-71
2023/10/11 07:39:41;;;;;;;11.45;3.50;;;15.90;99.90;;;;;;5022230;28;20076;-71
2023/10/11 07:42:10;;;;;;;6.22;3.20;;;16.00;99.90;;;;;;5022719;28;20076;-71
2023/10/11 07:44:36;;;;;;;8.05;3.30;;;16.00;99.90;;;;;;5021500;28;20132;-72
2023/10/11 07:47:06;;;;;;;8.35;3.30;;;16.00;99.90;;;;;;5022141;28;20069;-72
2023/10/11 07:49:38;;;;;;;8.18;3.03;;;16.10;99.90;;;;;;5026851;28;20616;-70
2023/10/11 07:52:08;;;;;;;5.13;2.83;;;16.10;99.90;;;;;;5018634;28;20049;-71
2023/10/11 07:54:35;;;;;;;10.75;3.70;;;16.20;99.90;;;;;;5024194;28;20130;-71
2023/10/11 07:57:03;;;;;;;9.23;3.30;;;16.20;99.90;;;;;;5022115;28;20048;-71
2023/10/11 07:59:30;;;;;;;8.57;3.05;;;16.20;99.90;;;;;;5024637;28;20128;-71
2023/10/11 08:02:07;;;;;;;10.85;3.42;;;16.20;99.90;;;;;;5020975;28;20055;-71
2023/10/11 08:04:36;;;;;;;10.25;3.75;;;16.30;99.90;;;;;;5011966;28;20044;-71
2023/10/11 08:07:03;;;;;;;9.73;3.65;;;16.30;99.90;;;;;;5018399;28;20385;-71
2023/10/11 08:09:45;;;;;;;14.10;4.53;;;16.30;99.90;;;;;;5027170;28;20140;-71
2023/10/11 08:12:15;;;;;;;9.10;3.85;;;16.30;99.90;;;;;;5020928;28;20258;-71
2023/10/11 08:14:45;;;;;;;7.95;3.03;;;16.40;99.90;;;;;;5023567;28;20812;-71
2023/10/11 08:17:15;;;;;;;8.98;3.67;;;16.30;99.90;;;;;;5010608;28;20048;-71
2023/10/11 08:19:44;;;;;;;9.32;3.20;;;16.40;99.90;;;;;;5029001;28;20168;-71
2023/10/11 08:22:14;;;;;;;7.63;4.03;;;16.40;99.90;;;;;;5024157;28;20524;-71
2023/10/11 08:24:49;;;;;;;5.28;3.17;;;16.40;99.90;;;;;;5011140;28;20095;-72
2023/10/11 08:27:28;;;;;;;7.93;3.45;;;16.40;99.90;;;;;;5028635;28;20041;-72
2023/10/11 08:30:07;;;;;;;12.43;3.92;;;16.40;99.90;;;;;;5025923;28;20116;-72
2023/10/11 08:32:43;;;;;;;8.80;3.20;;;16.40;99.90;;;;;;5050054;28;20041;-71
2023/10/11 08:35:16;;;;;;;9.65;4.00;;;16.40;99.90;;;;;;5031741;28;20094;-71
2023/10/11 08:37:43;;;;;;;11.27;4.53;;;16.40;99.90;;;;;;5030225;28;20044;-71
2023/10/11 08:40:20;;;;;;;6.35;3.80;;;16.50;99.90;;;;;;5030248;28;20064;-71
2023/10/11 08:42:50;;;;;;;6.78;3.95;;;16.50;99.90;;;;;;5024792;28;20037;-71
2023/10/11 08:45:29;;;;;;;8.88;3.65;;;16.60;99.90;;;;;;5027828;28;20041;-71
2023/10/11 08:47:57;;;;;;;6.85;3.78;;;16.60;99.90;;;;;;5030017;28;20118;-71
2023/10/11 08:50:26;;;;;;;12.88;4.05;;;16.60;99.90;;;;;;5021078;28;20037;-72
2023/10/11 08:52:54;;;;;;;9.80;4.40;;;16.60;99.90;;;;;;5020931;28;20064;-72
2023/10/11 08:55:24;;;;;;;9.60;3.58;;;16.60;99.90;;;;;;5026715;28;20076;-71
2023/10/11 08:57:50;;;;;;;7.07;4.40;;;16.70;99.90;;;;;;5026564;28;20568;-71
2023/10/11 09:00:28;;;;;;;11.02;3.60;;;16.70;99.90;;;;;;5021171;28;20045;-70
2023/10/11 09:02:55;;;;;;;9.18;3.38;;;16.70;99.90;;;;;;5025726;28;20077;-71
2023/10/11 09:05:32;;;;;;;7.60;3.67;;;16.80;99.90;;;;;;5011975;28;20041;-71
2023/10/11 09:08:02;;;;;;;7.93;3.40;;;16.80;99.90;;;;;;5020614;28;20042;-72
2023/10/11 09:10:32;;;;;;;7.00;2.83;;;16.80;99.90;;;;;;5035633;28;20116;-71
2023/10/11 09:12:59;;;;;;;5.75;3.45;;;16.80;99.90;;;;;;5021682;28;20356;-72
2023/10/11 09:15:42;;;;;;;8.13;3.17;;;16.90;99.90;;;;;;5028026;28;20029;-71
2023/10/11 09:18:16;;;;;;;11.23;3.53;;;16.90;99.90;;;;;;5023842;28;20047;-71
2023/10/11 09:20:53;;;;;;;5.70;2.55;;;17.00;99.90;;;;;;5020745;28;20072;-71
2023/10/11 09:23:37;;;;;;;10.07;2.55;;;17.00;99.90;;;;;;5021279;28;20174;-72
2023/10/11 09:26:05;;;;;;;4.88;2.63;;;17.00;99.90;;;;;;5022417;28;20127;-72
2023/10/11 09:28:33;;;;;;;6.78;3.33;;;17.10;99.90;;;;;;5030517;28;20081;-72
2023/10/11 09:31:27;;;;;;;8.15;2.72;;;17.10;99.90;;;;;;5020367;28;20040;-72
2023/10/11 09:33:59;;;;;;;7.35;2.70;;;17.10;99.90;;;;;;5012584;28;20094;-72
2023/10/11 09:36:28;;;;;;;4.55;2.40;;;17.20;99.90;;;;;;5030633;28;20084;-72
2023/10/11 09:38:55;;;;;;;3.10;1.92;;;17.20;99.90;;;;;;5021132;28;20044;-72
2023/10/11 09:41:39;;;;;;;3.97;2.00;;;17.10;99.90;;;;;;5024780;28;20464;-71
2023/10/11 09:44:12;;;;;;;8.52;2.28;;;17.20;99.90;;;;;;5032004;28;20049;-71
2023/10/11 09:46:43;;;;;;;7.40;1.83;;;17.20;99.90;;;;;;5023244;28;20049;-71
2023/10/11 09:49:15;;;;;;;7.43;2.33;;;17.20;99.90;;;;;;5025998;28;20115;-71
2023/10/11 09:51:42;;;;;;;4.55;1.77;;;17.20;99.90;;;;;;5022793;28;20425;-71
2023/10/11 09:54:12;;;;;;;4.90;1.13;;;17.20;99.90;;;;;;5009049;28;20044;-71
2023/10/11 09:56:51;;;;;;;3.35;1.70;;;17.20;99.90;;;;;;5025053;28;20087;-71
2023/10/11 09:59:29;;;;;;;2.00;0.93;;;17.30;99.90;;;;;;5020621;28;20536;-72
2023/10/11 10:02:14;;;;;;;5.10;1.35;;;17.40;99.90;;;;;;5026176;28;20045;-72
2023/10/11 10:04:51;;;;;;;7.47;1.50;;;17.40;99.90;;;;;;5021179;28;20045;-72
2023/10/11 10:07:22;;;;;;;3.03;1.40;;;17.40;99.90;;;;;;5017403;28;20470;-71
2023/10/11 10:09:52;;;;;;;2.92;1.05;;;17.50;99.90;;;;;;5024910;28;20083;-72
2023/10/11 10:12:22;;;;;;;2.40;1.23;;;17.50;99.90;;;;;;5041145;28;20119;-72
2023/10/11 10:15:28;;;;;;;1.80;0.93;;;17.70;99.90;;;;;;5031374;28;20055;-72
2023/10/11 10:17:57;;;;;;;1.55;0.85;;;17.80;99.90;;;;;;5023550;28;20127;-71
2023/10/11 10:20:34;;;;;;;1.77;0.98;;;18.00;99.90;;;;;;5004331;28;20128;-72
2023/10/11 10:23:15;;;;;;;2.15;1.02;;;18.10;99.90;;;;;;5012440;28;20507;-71
2023/10/11 10:25:46;;;;;;;2.33;1.10;;;18.20;99.90;;;;;;5013070;28;20049;-70
2023/10/11 10:28:36;;;;;;;1.88;0.77;;;18.20;99.90;;;;;;5026426;28;20112;-71
2023/10/11 10:31:09;;;;;;;1.52;0.85;;;18.30;99.90;;;;;;5009288;28;20123;-71
2023/10/11 10:33:35;;;;;;;1.02;0.57;;;18.40;99.90;;;;;;5026172;28;20033;-71
2023/10/11 10:36:20;;;;;;;2.33;0.57;;;18.40;99.90;;;;;;5027469;28;20364;-71
2023/10/11 10:38:58;;;;;;;4.00;1.00;;;18.60;99.90;;;;;;5024265;28;20473;-71
2023/10/11 10:41:25;;;;;;;2.72;0.75;;;18.70;99.90;;;;;;5023508;28;20041;-71
2023/10/11 10:44:11;;;;;;;2.65;1.02;;;18.80;99.90;;;;;;5024075;28;20049;-71
2023/10/11 10:46:59;;;;;;;3.08;0.80;;;18.80;99.90;;;;;;5019953;28;20051;-71
2023/10/11 10:49:42;;;;;;;3.38;1.00;;;18.70;99.90;;;;;;5022672;28;20128;-71
2023/10/11 10:52:34;;;;;;;3.97;1.02;;;18.70;99.90;;;;;;5024339;28;20072;-71
2023/10/11 10:55:02;;;;;;;2.90;0.63;;;19.00;99.90;;;;;;5032857;28;20528;-71
2023/10/11 10:57:31;;;;;;;1.58;0.90;;;19.40;99.90;;;;;;5022490;28;20045;-71
2023/10/11 11:00:44;;;;;;;1.45;0.52;;;19.80;99.90;;;;;;5005402;28;20119;-71
2023/10/11 11:03:15;;;;;;;2.58;0.73;;;20.00;99.90;;;;;;5017818;28;20122;-71
2023/10/11 11:05:57;;;;;;;2.90;0.68;;;19.90;99.90;;;;;;5003146;28;20037;-71
2023/10/11 11:08:29;;;;;;;1.55;0.50;;;20.10;99.90;;;;;;5023011;28;20103;-71
2023/10/11 11:11:18;;;;;;;1.23;0.45;;;20.10;99.90;;;;;;5025004;28;20039;-71
2023/10/11 11:13:47;;;;;;;1.75;0.63;;;20.00;99.90;;;;;;5020227;28;20052;-71
2023/10/11 11:16:28;;;;;;;1.08;0.40;;;20.10;99.90;;;;;;5021664;28;20053;-72
2023/10/11 11:19:00;;;;;;;1.30;0.47;;;20.20;99.90;;;;;;5035373;28;20041;-71
2023/10/11 11:21:29;;;;;;;4.65;0.68;;;20.50;99.90;;;;;;5012557;28;20037;-71
2023/10/11 11:24:14;;;;;;;1.88;0.52;;;20.70;99.90;;;;;;5025046;28;20045;-71
2023/10/11 11:26:40;;;;;;;3.38;0.82;;;20.50;99.90;;;;;;5022889;28;20037;-71
2023/10/11 11:29:11;;;;;;;0.73;0.40;;;20.40;99.90;;;;;;5024788;28;20132;-71
2023/10/11 11:31:57;;;;;;;4.63;0.68;;;20.30;99.90;;;;;;5021784;28;20041;-72
2023/10/11 11:34:34;;;;;;;1.58;0.60;;;20.20;99.90;;;;;;5018048;28;20107;-71
2023/10/11 11:37:07;;;;;;;0.88;0.50;;;20.00;99.90;;;;;;5011620;28;20079;-71
2023/10/11 11:39:39;;;;;;;4.55;0.85;;;19.90;99.90;;;;;;5009084;28;20029;-71
2023/10/11 11:42:18;;;;;;;1.20;0.35;;;19.80;99.90;;;;;;5037859;28;20040;-71
2023/10/11 11:44:46;;;;;;;2.47;0.65;;;19.80;99.90;;;;;;5021469;28;20370;-71
2023/10/11 11:47:21;;;;;;;1.45;0.50;;;19.80;99.90;;;;;;5030753;28;20549;-71
2023/10/11 11:49:47;;;;;;;;;;;19.90;99.90;;;;;;5011594;28;20044;-72
2023/10/11 11:52:22;;;;;;;1.52;0.43;;;19.90;99.90;;;;;;5026030;28;20408;-71
2023/10/11 11:54:48;;;;;;;0.73;0.40;;;19.90;99.90;;;;;;5009504;28;20056;-71
2023/10/11 11:57:13;;;;;;;4.47;0.45;;;19.90;99.90;;;;;;5029381;28;20037;-71
2023/10/11 11:59:41;;;;;;;0.47;0.20;;;19.90;99.90;;;;;;5030191;28;20052;-71
2023/10/11 12:02:16;;;;;;;0.60;0.30;;;19.90;99.90;;;;;;5023401;28;20052;-71
2023/10/11 12:04:44;;;;;;;2.28;0.40;;;20.00;99.90;;;;;;5006184;28;20045;-71
2023/10/11 12:07:10;;;;;;;0.28;0.20;;;20.00;99.90;;;;;;5024693;28;20040;-71
2023/10/11 12:09:38;;;;;;;0.98;0.32;;;20.00;99.90;;;;;;5021987;28;20045;-70
2023/10/11 12:12:05;;;;;;;0.60;0.32;;;20.00;99.90;;;;;;5022068;28;20050;-71
2023/10/11 12:14:37;;;;;;;0.60;0.28;;;19.90;99.90;;;;;;5023043;28;20037;-73
2023/10/11 12:17:10;;;;;;;1.50;0.50;;;19.90;99.90;;;;;;5025845;28;20037;-73
2023/10/11 12:19:42;;;;;;;0.77;0.60;;;20.10;99.90;;;;;;5038692;28;20045;-72
2023/10/11 12:22:13;;;;;;;1.90;0.43;;;20.40;99.90;;;;;;5030550;28;20291;-72
2023/10/11 12:24:44;;;;;;;0.63;0.22;;;21.40;99.90;;;;;;5045214;28;20049;-72
2023/10/11 12:27:13;;;;;;;0.68;0.30;;;22.40;99.90;;;;;;5026697;28;20037;-72
2023/10/11 12:29:39;;;;;;;1.60;0.50;;;22.80;99.90;;;;;;5014572;28;20456;-72
2023/10/11 12:32:07;;;;;;;0.73;0.40;;;22.60;99.90;;;;;;5041363;28;20084;-72
2023/10/11 12:34:33;;;;;;;2.63;0.38;;;22.10;99.90;;;;;;5027553;28;20045;-72
2023/10/11 12:37:02;;;;;;;0.98;0.35;;;21.70;99.90;;;;;;5025781;28;20033;-72
2023/10/11 12:39:33;;;;;;;1.55;0.40;;;21.40;99.90;;;;;;5020278;28;20055;-72
2023/10/11 12:42:01;;;;;;;2.70;0.45;;;21.20;99.90;;;;;;5024837;28;20076;-72
2023/10/11 12:44:59;;;;;;;0.73;0.30;;;21.10;99.90;;;;;;5027115;28;20058;-72
2023/10/11 12:47:24;;;;;;;0.70;0.30;;;20.90;99.90;;;;;;5020023;28;20049;-71
2023/10/11 12:49:50;;;;;;;2.70;0.50;;;20.90;99.90;;;;;;5022926;28;20057;-71
2023/10/11 12:52:19;;;;;;;1.52;0.35;;;20.80;99.90;;;;;;5027944;28;20495;-71
2023/10/11 12:54:44;;;;;;;1.05;0.28;;;20.70;99.90;;;;;;5014356;28;20048;-71
2023/10/11 12:57:14;;;;;;;0.90;0.40;;;20.60;99.90;;;;;;5030380;28;20451;-72
2023/10/11 12:59:41;;;;;;;0.93;0.20;;;20.50;99.90;;;;;;5024783;28;20041;-72
2023/10/11 13:02:09;;;;;;;1.90;0.47;;;20.40;99.90;;;;;;5022212;28;20057;-72
2023/10/11 13:04:37;;;;;;;1.30;0.32;;;20.30;99.90;;;;;;5013425;28;20142;-72
2023/10/11 13:07:12;;;;;;;2.65;0.30;;;20.30;99.90;;;;;;5021481;28;20125;-71
2023/10/11 13:09:40;;;;;;;2.05;0.32;;;20.20;99.90;;;;;;5023769;28;20549;-71
2023/10/11 13:12:06;;;;;;;1.75;0.20;;;20.10;99.90;;;;;;5027083;28;20085;-71
2023/10/11 13:14:53;;;;;;;1.85;0.47;;;20.00;99.90;;;;;;5040294;28;20099;-72
2023/10/11 13:17:19;;;;;;;0.80;0.28;;;20.00;99.90;;;;;;5041114;28;20470;-71
2023/10/11 13:19:45;;;;;;;0.68;0.30;;;20.00;99.90;;;;;;5009713;28;20131;-71
2023/10/11 13:22:12;;;;;;;0.30;0.20;;;20.00;99.90;;;;;;5014562;28;20397;-71
2023/10/11 13:24:38;;;;;;;1.85;0.43;;;19.90;99.90;;;;;;5012890;28;20045;-71
2023/10/11 13:27:07;;;;;;;0.85;0.30;;;19.90;99.90;;;;;;5027962;28;20040;-73
2023/10/11 13:29:33;;;;;;;2.88;0.30;;;19.90;99.90;;;;;;5031511;28;20048;-73
2023/10/11 13:31:58;;;;;;;0.15;0.15;;;19.90;99.90;;;;;;5055163;28;20063;-73
2023/10/11 13:34:28;;;;;;;1.23;0.10;;;19.90;99.90;;;;;;5035566;28;20048;-73
2023/10/11 13:36:57;;;;;;;0.55;0.20;;;20.00;99.90;;;;;;5041730;28;20033;-73
2023/10/11 13:39:27;;;;;;;0.93;0.20;;;20.00;99.90;;;;;;5049814;28;20033;-73
2023/10/11 13:42:04;;;;;;;0.30;0.05;;;20.00;99.90;;;;;;5052230;28;20061;-73
2023/10/11 13:44:35;;;;;;;0.57;0.20;;;20.00;99.90;;;;;;5047785;28;20041;-73
2023/10/11 13:47:01;;;;;;;0.65;0.30;;;20.10;99.90;;;;;;5043545;28;20056;-73
2023/10/11 13:49:27;;;;;;;2.13;0.25;;;20.10;99.90;;;;;;5043646;28;20042;-73
2023/10/11 13:52:03;;;;;;;2.70;0.50;;;20.20;99.90;;;;;;5037441;28;20049;-73
2023/10/11 13:54:38;;;;;;;0.60;0.20;;;20.30;99.90;;;;;;5035525;28;20037;-73
2023/10/11 13:57:27;;;;;;;0.55;0.20;;;20.30;99.90;;;;;;5048345;28;20045;-73
2023/10/11 13:59:53;;;;;;;1.80;0.22;;;20.20;99.90;;;;;;5051229;28;20096;-73